Time;durP1;ratioP1;P1;durP2;ratioP2;P2;SDS_P1;SDS_P2;PMS_P1;PMS_P2;Temp;Humidity;BMP_temperature;BMP_pressure;BME280_temperature;BME280_humidity;BME280_pressure;Samples;Min_cycle;Max_cycle;Signal;HPM_P1;HPM_P2
2022/06/04 00:00:28;;;;;;;;;;;15.50;67.80;;;;;;5107518;28;20384;-73
2022/06/04 00:02:54;;;;;;;0.00;0.00;;;15.50;67.80;;;;;;5107040;28;20019;-73
2022/06/04 00:05:26;;;;;;;0.00;0.00;;;15.50;67.80;;;;;;5089173;28;20437;-73
2022/06/04 00:07:54;;;;;;;0.00;0.00;;;15.50;67.80;;;;;;5107117;28;20027;-73
2022/06/04 00:15:58;;;;;;;0.00;0.00;;;15.40;67.90;;;;;;5107621;28;20073;-74
2022/06/04 00:18:24;;;;;;;;;;;15.40;67.90;;;;;;5107374;28;20395;-73
2022/06/04 00:20:51;;;;;;;0.00;0.00;;;15.40;67.90;;;;;;5107177;28;19971;-74
2022/06/04 00:23:17;;;;;;;0.00;0.00;;;15.40;67.90;;;;;;5088702;28;20027;-74
2022/06/04 00:25:49;;;;;;;0.00;0.00;;;15.30;67.90;;;;;;5088903;28;20118;-74
2022/06/04 00:28:17;;;;;;;0.00;0.00;;;15.30;68.00;;;;;;5106985;28;20032;-73
2022/06/04 00:30:43;;;;;;;0.00;0.00;;;15.40;68.00;;;;;;5088782;28;20165;-73
2022/06/04 00:33:08;;;;;;;;;;;15.40;68.00;;;;;;5107254;28;20028;-73
2022/06/04 00:35:35;;;;;;;0.00;0.00;;;15.40;67.90;;;;;;5091608;28;19914;-75
2022/06/04 00:38:05;;;;;;;0.00;0.00;;;15.40;67.90;;;;;;5075132;28;20394;-74
2022/06/04 00:40:43;;;;;;;0.00;0.00;;;15.30;68.00;;;;;;5110580;28;20414;-74
2022/06/04 00:43:09;;;;;;;0.00;0.00;;;15.30;68.10;;;;;;5110226;28;20024;-74
2022/06/04 00:45:35;;;;;;;0.00;0.00;;;15.20;68.10;;;;;;5110568;28;20019;-73
2022/06/04 00:48:08;;;;;;;0.00;0.00;;;15.20;68.10;;;;;;5091832;28;20449;-75
2022/06/04 00:50:38;;;;;;;0.00;0.00;;;15.20;68.10;;;;;;5110079;28;20020;-72
2022/06/04 00:53:08;;;;;;;0.00;0.00;;;15.20;68.20;;;;;;5091994;28;20489;-74
2022/06/04 00:56:03;;;;;;;0.00;0.00;;;15.20;68.20;;;;;;5110486;28;20363;-74
2022/06/04 00:58:59;;;;;;;0.00;0.00;;;15.10;68.20;;;;;;5109870;28;20128;-73
2022/06/04 01:01:32;;;;;;;0.00;0.00;;;15.20;68.30;;;;;;5110444;28;20023;-74
2022/06/04 01:04:47;;;;;;;0.00;0.00;;;15.10;68.10;;;;;;5110028;28;20040;-74
2022/06/04 01:07:39;;;;;;;0.00;0.00;;;15.10;68.20;;;;;;5104905;28;20112;-73
2022/06/04 01:10:13;;;;;;;0.00;0.00;;;15.10;68.20;;;;;;5110181;28;20106;-74
2022/06/04 01:12:42;;;;;;;0.00;0.00;;;15.00;68.20;;;;;;5110080;28;20039;-73
2022/06/04 01:15:36;;;;;;;0.00;0.00;;;15.00;68.20;;;;;;5091839;28;20114;-72
2022/06/04 01:18:27;;;;;;;0.00;0.00;;;15.00;68.30;;;;;;5109772;28;20043;-73
2022/06/04 01:21:17;;;;;;;0.00;0.00;;;15.00;68.30;;;;;;5110022;28;20099;-73
2022/06/04 01:23:43;;;;;;;0.00;0.00;;;15.00;68.30;;;;;;5109937;28;20012;-74
2022/06/04 01:26:15;;;;;;;;;;;14.90;68.30;;;;;;5110315;28;20028;-74
2022/06/04 01:28:48;;;;;;;0.00;0.00;;;14.90;68.30;;;;;;5109700;28;19908;-74
2022/06/04 01:31:20;;;;;;;0.00;0.00;;;14.90;68.30;;;;;;5091529;28;20024;-74
2022/06/04 01:34:00;;;;;;;0.00;0.00;;;14.90;68.30;;;;;;5109655;28;20049;-74
2022/06/04 01:36:32;;;;;;;0.00;0.00;;;14.90;68.30;;;;;;5109598;28;20020;-74
2022/06/04 01:39:07;;;;;;;0.00;0.00;;;14.90;68.30;;;;;;5109459;28;20027;-73
2022/06/04 01:41:38;;;;;;;0.00;0.00;;;14.90;68.30;;;;;;5091299;28;20126;-74
2022/06/04 01:44:21;;;;;;;0.00;0.00;;;14.80;68.20;;;;;;5091283;28;20408;-74
2022/06/04 01:46:53;;;;;;;0.00;0.00;;;14.80;68.20;;;;;;5091042;28;20019;-73
2022/06/04 01:49:27;;;;;;;0.00;0.00;;;14.80;68.30;;;;;;5109421;28;20037;-75
2022/06/04 01:51:58;;;;;;;0.00;0.00;;;14.80;68.30;;;;;;5109254;28;20035;-74
2022/06/04 01:54:36;;;;;;;0.00;0.00;;;14.70;68.30;;;;;;5090945;28;20031;-73
2022/06/04 01:57:26;;;;;;;0.00;0.00;;;14.70;68.30;;;;;;5109059;28;20065;-74
2022/06/04 01:59:56;;;;;;;0.00;0.00;;;14.70;68.30;;;;;;5109160;28;20023;-74
2022/06/04 02:02:33;;;;;;;0.00;0.00;;;14.70;68.30;;;;;;5109027;28;20040;-72
2022/06/04 02:05:04;;;;;;;0.00;0.00;;;14.60;68.20;;;;;;5109581;28;20408;-74
2022/06/04 02:07:34;;;;;;;0.00;0.00;;;14.60;68.20;;;;;;5108960;28;20102;-73
2022/06/04 02:10:19;;;;;;;0.00;0.00;;;14.60;68.20;;;;;;5109083;28;20056;-74
2022/06/04 02:12:48;;;;;;;0.00;0.00;;;14.60;68.30;;;;;;5109278;28;20369;-73
2022/06/04 02:15:19;;;;;;;0.00;0.00;;;14.70;68.80;;;;;;5108850;28;20031;-74
2022/06/04 02:17:49;;;;;;;0.00;0.00;;;14.70;68.20;;;;;;5108775;28;20031;-74
2022/06/04 02:20:15;;;;;;;0.00;0.00;;;14.70;68.30;;;;;;5108827;28;20031;-74
2022/06/04 02:22:41;;;;;;;0.00;0.00;;;14.70;68.30;;;;;;5108754;28;20646;-73
2022/06/04 02:25:08;;;;;;;;;;;14.60;68.30;;;;;;5109207;28;20034;-74
2022/06/04 02:27:35;;;;;;;0.00;0.00;;;14.60;68.20;;;;;;5090540;28;19953;-73
2022/06/04 02:30:01;;;;;;;0.00;0.00;;;14.60;68.10;;;;;;5108630;28;20089;-73
2022/06/04 02:33:03;;;;;;;;;;;14.50;68.10;;;;;;5109005;28;20027;-73
2022/06/04 02:36:12;;;;;;;0.03;0.03;;;14.40;68.10;;;;;;4989327;28;19917;-74
2022/06/04 02:39:01;;;;;;;0.00;0.00;;;14.30;68.10;;;;;;5045249;28;20040;-73
2022/06/04 02:41:58;;;;;;;0.00;0.00;;;14.20;68.20;;;;;;5045415;28;20025;-74
2022/06/04 02:44:28;;;;;;;0.00;0.00;;;14.20;68.30;;;;;;5071356;28;20027;-74
2022/06/04 02:47:00;;;;;;;0.00;0.00;;;14.20;68.30;;;;;;5089940;28;20354;-73
2022/06/04 02:49:39;;;;;;;0.47;0.47;;;14.10;68.20;;;;;;5108306;28;20107;-73
2022/06/04 02:52:09;;;;;;;0.00;0.00;;;14.10;68.10;;;;;;5090031;28;20047;-72
2022/06/04 02:54:44;;;;;;;0.00;0.00;;;14.00;68.10;;;;;;5090048;28;20027;-72
2022/06/04 02:57:12;;;;;;;0.00;0.00;;;13.90;68.20;;;;;;5107415;28;20023;-74
2022/06/04 02:59:40;;;;;;;0.00;0.00;;;13.80;68.20;;;;;;5108012;28;20051;-72
2022/06/04 03:02:07;;;;;;;0.00;0.00;;;13.80;68.30;;;;;;5108056;28;20015;-73
2022/06/04 03:04:49;;;;;;;0.00;0.00;;;13.80;68.30;;;;;;5107808;28;20062;-74
2022/06/04 03:07:16;;;;;;;0.00;0.00;;;13.80;68.30;;;;;;5108002;28;20020;-74
2022/06/04 03:09:44;;;;;;;0.00;0.00;;;13.70;68.30;;;;;;5107820;28;20032;-72
2022/06/04 03:12:12;;;;;;;0.00;0.00;;;13.70;68.30;;;;;;5107849;28;20406;-73
2022/06/04 03:14:38;;;;;;;0.00;0.00;;;13.70;68.30;;;;;;5107815;28;20032;-73
2022/06/04 03:17:07;;;;;;;0.00;0.00;;;13.70;68.40;;;;;;5108179;28;20053;-73
2022/06/04 03:19:33;;;;;;;0.00;0.00;;;13.70;68.40;;;;;;5108032;28;20035;-72
2022/06/04 03:22:00;;;;;;;0.00;0.00;;;13.70;68.40;;;;;;5108101;28;20394;-73
2022/06/04 03:24:26;;;;;;;0.00;0.00;;;13.70;68.30;;;;;;5089974;28;20463;-75
2022/06/04 03:26:51;;;;;;;;;;;13.60;68.30;;;;;;5108160;28;20039;-72
2022/06/04 03:29:17;;;;;;;0.00;0.00;;;13.60;68.30;;;;;;5108025;28;19907;-74
2022/06/04 03:31:43;;;;;;;0.20;0.10;;;13.60;68.20;;;;;;5107851;28;20028;-73
2022/06/04 03:34:09;;;;;;;0.00;0.00;;;13.50;68.20;;;;;;5089526;28;20135;-74
2022/06/04 03:36:35;;;;;;;0.00;0.00;;;13.40;68.20;;;;;;5107799;28;20502;-73
2022/06/04 03:39:02;;;;;;;0.00;0.00;;;13.40;68.30;;;;;;5107640;28;20062;-74
2022/06/04 03:41:28;;;;;;;0.00;0.00;;;13.30;68.30;;;;;;5108238;28;20020;-73
2022/06/04 03:43:54;;;;;;;0.00;0.00;;;13.30;68.30;;;;;;5107698;28;20028;-73
2022/06/04 03:46:21;;;;;;;0.00;0.00;;;13.30;68.40;;;;;;5107684;28;20039;-72
2022/06/04 03:48:47;;;;;;;0.00;0.00;;;13.20;68.40;;;;;;5107614;28;20027;-73
2022/06/04 03:51:13;;;;;;;0.00;0.00;;;13.20;68.40;;;;;;5089378;28;20535;-74
2022/06/04 03:53:38;;;;;;;0.00;0.00;;;13.20;68.40;;;;;;5089526;28;20062;-72
2022/06/04 03:56:04;;;;;;;0.00;0.00;;;13.20;68.40;;;;;;5107646;28;20073;-72
2022/06/04 03:58:30;;;;;;;0.00;0.00;;;13.20;68.40;;;;;;5107635;28;20032;-72
2022/06/04 04:00:57;;;;;;;0.00;0.00;;;13.10;68.30;;;;;;5072498;28;20027;-73
2022/06/04 04:03:23;;;;;;;0.00;0.00;;;13.10;68.30;;;;;;5107448;28;20465;-74
2022/06/04 04:05:53;;;;;;;;;;;13.10;68.30;;;;;;5107944;28;20055;-72
2022/06/04 04:08:23;;;;;;;0.00;0.00;;;13.10;68.30;;;;;;5108932;28;19935;-73
2022/06/04 04:10:49;;;;;;;0.00;0.00;;;13.10;68.30;;;;;;5093277;28;20035;-72
2022/06/04 04:13:17;;;;;;;0.00;0.00;;;13.10;68.30;;;;;;5111276;28;20028;-74
2022/06/04 04:15:43;;;;;;;0.00;0.00;;;13.10;68.30;;;;;;5111366;28;20156;-72
2022/06/04 04:18:09;;;;;;;0.00;0.00;;;13.10;68.40;;;;;;5111062;28;20043;-72
2022/06/04 04:20:36;;;;;;;;;;;13.10;68.30;;;;;;5111739;28;20054;-73
2022/06/04 04:23:04;;;;;;;0.00;0.00;;;13.10;68.30;;;;;;5111133;28;20383;-74
2022/06/04 04:25:30;;;;;;;0.00;0.00;;;13.20;68.30;;;;;;5092769;28;20035;-72
2022/06/04 04:27:57;;;;;;;0.00;0.00;;;13.30;68.30;;;;;;5075688;28;20051;-73
2022/06/04 04:30:27;;;;;;;0.00;0.00;;;13.30;68.30;;;;;;5111026;28;20481;-72
2022/06/04 04:32:53;;;;;;;0.00;0.00;;;13.20;68.30;;;;;;5110954;28;20517;-72
2022/06/04 04:35:20;;;;;;;;;;;13.30;68.30;;;;;;5111425;28;20031;-74
2022/06/04 04:37:46;;;;;;;0.00;0.00;;;13.30;68.40;;;;;;5110859;28;19943;-73
2022/06/04 04:40:14;;;;;;;0.00;0.00;;;13.30;68.30;;;;;;5111021;28;20475;-73
2022/06/04 04:42:41;;;;;;;0.00;0.00;;;13.30;68.20;;;;;;5110798;28;20137;-74
2022/06/04 04:45:07;;;;;;;0.00;0.00;;;13.30;68.30;;;;;;5092434;28;20023;-73
2022/06/04 04:47:38;;;;;;;0.00;0.00;;;13.30;68.30;;;;;;5092295;28;20024;-74
2022/06/04 04:50:08;;;;;;;0.00;0.00;;;13.30;68.30;;;;;;5110673;28;20418;-74
2022/06/04 04:52:34;;;;;;;0.00;0.00;;;13.30;68.30;;;;;;5091767;28;20037;-74
2022/06/04 04:55:00;;;;;;;;;;;13.30;68.30;;;;;;5110904;28;20081;-72
2022/06/04 04:57:25;;;;;;;0.00;0.00;;;13.30;68.30;;;;;;5110228;28;19904;-72
2022/06/04 04:59:51;;;;;;;0.00;0.00;;;13.20;68.20;;;;;;5110366;28;20552;-72
2022/06/04 05:02:17;;;;;;;0.00;0.00;;;13.30;68.30;;;;;;5110392;28;20253;-73
2022/06/04 05:04:43;;;;;;;0.00;0.00;;;13.20;68.30;;;;;;5092338;28;20076;-73
2022/06/04 05:07:11;;;;;;;0.00;0.00;;;13.20;68.40;;;;;;5110237;28;20024;-73
2022/06/04 05:09:39;;;;;;;0.00;0.00;;;13.20;68.40;;;;;;5092509;28;20106;-75
2022/06/04 05:12:06;;;;;;;0.10;0.10;;;13.30;68.40;;;;;;5110107;28;20035;-74
2022/06/04 05:14:32;;;;;;;0.00;0.00;;;13.30;68.50;;;;;;5091676;28;20059;-74
2022/06/04 05:16:58;;;;;;;0.00;0.00;;;13.40;68.40;;;;;;5109963;28;20504;-73
2022/06/04 05:19:23;;;;;;;0.00;0.00;;;13.40;68.40;;;;;;5109266;28;20036;-75
2022/06/04 05:21:53;;;;;;;0.00;0.00;;;13.40;68.40;;;;;;5110021;28;20028;-73
2022/06/04 05:24:26;;;;;;;0.00;0.00;;;13.40;68.50;;;;;;5091612;28;20118;-72
2022/06/04 05:26:53;;;;;;;0.00;0.00;;;13.50;68.60;;;;;;5109761;28;20098;-74
2022/06/04 05:29:20;;;;;;;0.00;0.00;;;13.60;68.60;;;;;;5109671;28;20073;-73
2022/06/04 05:31:46;;;;;;;0.00;0.00;;;13.80;68.60;;;;;;5109723;28;20034;-73
2022/06/04 05:34:14;;;;;;;0.00;0.00;;;13.90;68.50;;;;;;5109653;28;20027;-74
2022/06/04 05:36:40;;;;;;;0.00;0.00;;;14.00;68.40;;;;;;5109743;28;20420;-73
2022/06/04 05:39:07;;;;;;;0.00;0.00;;;14.20;68.50;;;;;;5109431;28;20039;-74
2022/06/04 05:41:34;;;;;;;0.00;0.00;;;14.20;68.40;;;;;;5109490;28;20093;-73
2022/06/04 05:44:00;;;;;;;0.00;0.00;;;14.40;68.40;;;;;;5110039;28;20020;-74
2022/06/04 05:46:26;;;;;;;0.00;0.00;;;14.60;68.20;;;;;;5091205;28;20031;-75
2022/06/04 05:48:52;;;;;;;0.00;0.00;;;14.80;67.90;;;;;;5109446;28;20065;-75
2022/06/04 05:51:20;;;;;;;0.00;0.00;;;14.80;67.90;;;;;;5109518;28;20054;-73
2022/06/04 05:53:48;;;;;;;0.00;0.00;;;14.80;68.00;;;;;;5109281;28;20055;-73
2022/06/04 05:56:20;;;;;;;0.00;0.00;;;14.90;68.10;;;;;;5091289;28;20243;-74
2022/06/04 05:58:47;;;;;;;0.00;0.00;;;14.90;68.20;;;;;;5090783;28;20469;-74
2022/06/04 06:01:14;;;;;;;0.00;0.00;;;15.00;68.10;;;;;;5090812;28;20028;-74
2022/06/04 06:03:40;;;;;;;0.00;0.00;;;15.40;68.50;;;;;;5109037;28;20043;-75
2022/06/04 06:06:12;;;;;;;0.00;0.00;;;15.90;67.90;;;;;;5109144;28;20019;-74
2022/06/04 06:08:37;;;;;;;0.00;0.00;;;16.20;67.60;;;;;;5108945;28;20552;-74
2022/06/04 06:11:11;;;;;;;0.00;0.00;;;16.50;67.30;;;;;;5108950;28;20224;-73
2022/06/04 06:13:38;;;;;;;0.00;0.00;;;16.50;67.00;;;;;;5108732;28;20038;-72
2022/06/04 06:16:13;;;;;;;0.00;0.00;;;16.30;67.20;;;;;;5108964;28;20370;-72
2022/06/04 06:18:39;;;;;;;0.05;0.05;;;16.10;67.70;;;;;;5108899;28;20542;-74
2022/06/04 06:21:16;;;;;;;0.00;0.00;;;16.20;67.90;;;;;;5108726;28;20106;-73
2022/06/04 06:23:43;;;;;;;0.00;0.00;;;16.10;67.80;;;;;;5108790;28;20483;-73
2022/06/04 06:26:12;;;;;;;0.00;0.00;;;16.10;67.90;;;;;;5108553;28;20034;-74
2022/06/04 06:28:39;;;;;;;0.00;0.00;;;15.90;68.00;;;;;;5108451;28;20027;-73
2022/06/04 06:31:07;;;;;;;0.00;0.00;;;15.70;68.10;;;;;;5089464;28;20023;-74
2022/06/04 06:33:33;;;;;;;0.00;0.00;;;15.50;68.50;;;;;;5108214;28;20478;-75
2022/06/04 06:36:02;;;;;;;0.00;0.00;;;15.50;68.60;;;;;;5108571;28;20020;-74
2022/06/04 06:38:28;;;;;;;0.00;0.00;;;15.50;68.60;;;;;;5108349;28;20039;-72
2022/06/04 06:40:56;;;;;;;0.00;0.00;;;15.30;68.60;;;;;;5108586;28;20039;-73
2022/06/04 06:43:31;;;;;;;0.00;0.00;;;15.30;68.80;;;;;;5108446;28;20031;-74
2022/06/04 06:46:11;;;;;;;0.00;0.00;;;15.30;68.70;;;;;;5089930;28;20031;-73
2022/06/04 06:48:40;;;;;;;0.00;0.00;;;15.20;68.60;;;;;;5107961;28;20050;-74
2022/06/04 06:51:12;;;;;;;0.00;0.00;;;15.10;68.80;;;;;;5108251;28;20028;-73
2022/06/04 06:53:38;;;;;;;0.00;0.00;;;15.00;68.90;;;;;;5108254;28;20028;-74
2022/06/04 06:56:18;;;;;;;0.00;0.00;;;15.00;69.00;;;;;;5108063;28;20062;-72
2022/06/04 06:58:45;;;;;;;0.00;0.00;;;15.10;68.90;;;;;;5108216;28;20098;-72
2022/06/04 07:01:11;;;;;;;0.00;0.00;;;15.20;68.90;;;;;;5089896;28;20331;-75
2022/06/04 07:03:39;;;;;;;0.00;0.00;;;15.20;68.80;;;;;;5107966;28;20071;-73
2022/06/04 07:06:07;;;;;;;0.00;0.00;;;15.20;68.70;;;;;;5108086;28;20019;-75
2022/06/04 07:08:37;;;;;;;0.00;0.00;;;15.30;68.70;;;;;;5107834;28;20024;-74
2022/06/04 07:11:03;;;;;;;0.00;0.00;;;15.30;68.60;;;;;;5107803;28;20062;-73
2022/06/04 07:13:29;;;;;;;0.00;0.00;;;15.30;68.80;;;;;;5107964;28;20035;-74
2022/06/04 07:15:55;;;;;;;0.00;0.00;;;15.40;68.80;;;;;;5107846;28;20032;-74
2022/06/04 07:18:21;;;;;;;0.22;0.22;;;15.40;68.80;;;;;;5107616;28;20408;-73
2022/06/04 07:20:47;;;;;;;0.00;0.00;;;15.60;68.90;;;;;;5107790;28;20038;-73
2022/06/04 07:23:13;;;;;;;0.00;0.00;;;15.70;68.70;;;;;;5107603;28;20032;-75
2022/06/04 07:25:44;;;;;;;0.00;0.00;;;15.60;68.60;;;;;;5107723;28;20011;-75
2022/06/04 07:28:11;;;;;;;0.00;0.00;;;15.60;68.80;;;;;;5107425;28;20026;-74
2022/06/04 07:30:37;;;;;;;0.00;0.00;;;15.50;68.80;;;;;;5089019;28;20358;-73
2022/06/04 07:33:03;;;;;;;0.00;0.00;;;15.50;69.00;;;;;;5089623;28;20027;-74
2022/06/04 07:35:29;;;;;;;0.00;0.00;;;15.40;68.90;;;;;;5072378;28;20036;-73
2022/06/04 07:37:55;;;;;;;0.00;0.00;;;15.40;69.00;;;;;;5107399;28;20024;-75
2022/06/04 07:40:21;;;;;;;0.15;0.13;;;15.40;68.90;;;;;;5107384;28;20034;-73
2022/06/04 07:42:47;;;;;;;0.00;0.00;;;15.40;68.90;;;;;;5108261;28;20020;-73
2022/06/04 07:45:14;;;;;;;0.00;0.00;;;15.40;69.00;;;;;;5111438;28;20035;-73
2022/06/04 07:47:41;;;;;;;0.00;0.00;;;15.40;69.00;;;;;;5111460;28;20034;-74
2022/06/04 07:50:09;;;;;;;0.00;0.00;;;15.40;69.00;;;;;;5111512;28;20024;-73
2022/06/04 07:52:37;;;;;;;0.00;0.00;;;15.50;68.80;;;;;;5111096;28;20032;-73
2022/06/04 07:55:06;;;;;;;0.00;0.00;;;15.40;68.80;;;;;;5093081;28;20345;-73
2022/06/04 07:57:33;;;;;;;0.00;0.00;;;15.50;68.90;;;;;;5111468;28;20026;-73
2022/06/04 07:59:59;;;;;;;0.00;0.00;;;15.40;68.90;;;;;;5111349;28;20035;-75
2022/06/04 08:02:25;;;;;;;0.00;0.00;;;15.40;69.00;;;;;;5111140;28;20015;-73
2022/06/04 08:04:53;;;;;;;0.00;0.00;;;15.50;69.00;;;;;;5111173;28;20030;-72
2022/06/04 08:07:20;;;;;;;0.00;0.00;;;15.50;68.90;;;;;;5092569;28;20062;-75
2022/06/04 08:09:48;;;;;;;0.00;0.00;;;15.50;68.90;;;;;;5092736;28;20031;-72
2022/06/04 08:12:14;;;;;;;0.00;0.00;;;15.40;68.70;;;;;;5093118;28;20035;-75
2022/06/04 08:14:42;;;;;;;0.00;0.00;;;15.40;69.40;;;;;;5110742;28;20076;-73
2022/06/04 08:17:08;;;;;;;0.00;0.00;;;15.40;68.90;;;;;;5092506;28;20393;-74
2022/06/04 08:19:34;;;;;;;;;;;15.40;69.00;;;;;;5110854;28;20032;-74
2022/06/04 08:22:00;;;;;;;0.00;0.00;;;15.40;69.00;;;;;;5091965;28;19904;-75
2022/06/04 08:24:26;;;;;;;0.00;0.00;;;15.50;69.10;;;;;;5110267;28;20023;-72
2022/06/04 08:26:58;;;;;;;0.00;0.00;;;15.60;69.20;;;;;;5110082;28;20031;-74
2022/06/04 08:29:30;;;;;;;0.00;0.00;;;15.60;69.10;;;;;;5091357;28;20028;-73
2022/06/04 08:31:56;;;;;;;0.00;0.00;;;15.70;69.00;;;;;;5110386;28;20044;-72
2022/06/04 08:34:22;;;;;;;0.00;0.00;;;15.80;69.00;;;;;;5110095;28;20199;-73
2022/06/04 08:36:47;;;;;;;;;;;15.90;69.00;;;;;;5091847;28;20092;-74
2022/06/04 08:39:14;;;;;;;0.00;0.00;;;15.90;69.00;;;;;;5110330;28;20381;-75
2022/06/04 08:42:01;;;;;;;0.00;0.00;;;16.00;69.00;;;;;;5110383;28;20026;-73
2022/06/04 08:44:33;;;;;;;0.00;0.00;;;16.20;69.20;;;;;;5091848;28;20020;-74
2022/06/04 08:47:17;;;;;;;0.00;0.00;;;16.40;68.90;;;;;;5109964;28;20020;-75
2022/06/04 08:49:55;;;;;;;0.00;0.00;;;16.80;69.10;;;;;;5110026;28;20048;-73
2022/06/04 08:52:29;;;;;;;0.00;0.00;;;16.90;68.60;;;;;;5091580;28;20118;-71
2022/06/04 08:58:05;;;;;;;0.00;0.00;;;16.70;68.40;;;;;;5109935;28;20530;-72
2022/06/04 09:00:38;;;;;;;0.00;0.00;;;16.50;68.70;;;;;;5109896;28;20031;-72
2022/06/04 09:03:16;;;;;;;0.00;0.00;;;16.50;69.10;;;;;;5091431;28;20051;-73
2022/06/04 09:06:11;;;;;;;0.00;0.00;;;16.60;68.90;;;;;;5110900;28;20027;-74
2022/06/04 09:09:08;;;;;;;0.00;0.00;;;16.60;69.10;;;;;;5110923;28;20016;-73
2022/06/04 09:11:57;;;;;;;0.00;0.00;;;16.70;69.10;;;;;;5109839;28;20101;-74
2022/06/04 09:14:43;;;;;;;0.00;0.00;;;16.90;69.10;;;;;;5091949;28;20434;-74
2022/06/04 09:17:31;;;;;;;0.00;0.00;;;16.90;68.80;;;;;;5109923;28;20041;-74
2022/06/04 09:19:58;;;;;;;0.00;0.00;;;16.90;68.80;;;;;;5110816;28;20485;-74
2022/06/04 09:22:35;;;;;;;0.00;0.00;;;16.90;68.60;;;;;;5075349;28;20032;-74
2022/06/04 09:25:01;;;;;;;0.00;0.00;;;16.80;68.70;;;;;;5110313;28;20045;-74
2022/06/04 09:27:53;;;;;;;0.00;0.00;;;16.80;68.80;;;;;;5110463;28;20430;-74
2022/06/04 09:30:22;;;;;;;0.20;0.17;;;16.80;69.00;;;;;;5104917;28;20027;-74
2022/06/04 09:33:23;;;;;;;0.00;0.00;;;16.90;69.00;;;;;;5109767;28;20039;-73
2022/06/04 09:35:49;;;;;;;0.05;0.05;;;17.00;68.90;;;;;;5065818;28;20106;-74
2022/06/04 09:38:31;;;;;;;0.00;0.00;;;17.10;68.80;;;;;;5090529;28;20344;-74
2022/06/04 09:41:18;;;;;;;0.00;0.00;;;17.20;68.90;;;;;;5108488;28;20023;-74
2022/06/04 09:43:45;;;;;;;0.00;0.00;;;17.40;69.10;;;;;;5109922;28;20028;-74
2022/06/04 09:46:13;;;;;;;0.00;0.00;;;17.80;68.90;;;;;;5109912;28;20065;-74
2022/06/04 09:48:47;;;;;;;0.00;0.00;;;17.90;68.80;;;;;;5109422;28;20027;-72
2022/06/04 09:51:24;;;;;;;0.00;0.00;;;18.20;69.20;;;;;;5091717;28;20147;-73
2022/06/04 09:53:56;;;;;;;0.00;0.00;;;18.90;70.10;;;;;;5109700;28;20046;-73
2022/06/04 09:56:28;;;;;;;0.00;0.00;;;19.90;70.00;;;;;;5108825;28;20039;-74
2022/06/04 09:58:55;;;;;;;0.00;0.00;;;20.60;69.60;;;;;;5109109;28;20118;-74
2022/06/04 10:01:23;;;;;;;0.00;0.00;;;20.60;68.60;;;;;;5109035;28;20111;-72
2022/06/04 10:04:14;;;;;;;0.00;0.00;;;21.20;69.90;;;;;;5090463;28;20059;-72
2022/06/04 10:06:41;;;;;;;0.00;0.00;;;21.80;69.30;;;;;;5106834;28;20327;-73
2022/06/04 10:12:13;;;;;;;0.00;0.00;;;21.50;69.10;;;;;;5088921;28;20031;-75
2022/06/04 10:14:42;;;;;;;0.00;0.00;;;21.40;68.30;;;;;;5088730;28;20050;-75
2022/06/04 10:17:19;;;;;;;0.00;0.00;;;21.10;68.60;;;;;;5088516;28;20462;-74
2022/06/04 10:19:52;;;;;;;0.00;0.00;;;21.20;69.30;;;;;;5069833;28;20024;-73
2022/06/04 10:22:18;;;;;;;0.00;0.00;;;21.40;69.10;;;;;;5088700;28;20435;-74
2022/06/04 10:24:53;;;;;;;;;;;21.10;68.40;;;;;;5088779;28;20042;-74
2022/06/04 10:27:50;;;;;;;0.00;0.00;;;20.60;68.60;;;;;;5088389;28;19951;-75
2022/06/04 10:30:39;;;;;;;0.00;0.00;;;20.20;69.00;;;;;;5088619;28;20020;-73
2022/06/04 10:33:23;;;;;;;0.00;0.00;;;19.90;69.30;;;;;;5087612;28;20085;-74
2022/06/04 10:36:01;;;;;;;0.00;0.00;;;19.60;69.00;;;;;;5088545;28;20048;-74
2022/06/04 10:39:02;;;;;;;0.00;0.00;;;19.30;69.50;;;;;;5088090;28;20035;-71
2022/06/04 10:41:54;;;;;;;0.00;0.00;;;19.20;69.40;;;;;;5088321;28;20023;-72
2022/06/04 10:44:31;;;;;;;0.00;0.00;;;19.20;69.90;;;;;;5049567;28;20067;-73
2022/06/04 10:47:03;;;;;;;0.00;0.00;;;19.60;70.00;;;;;;5099299;28;20011;-74
2022/06/04 10:50:01;;;;;;;0.00;0.00;;;19.90;70.10;;;;;;5097388;28;20027;-73
2022/06/04 10:52:32;;;;;;;0.00;0.00;;;20.10;69.50;;;;;;5096943;28;20082;-73
2022/06/04 10:55:27;;;;;;;0.00;0.00;;;20.00;68.80;;;;;;5107972;28;20135;-74
2022/06/04 10:57:58;;;;;;;0.00;0.00;;;20.00;69.70;;;;;;5106306;28;20023;-73
2022/06/04 11:00:35;;;;;;;0.00;0.00;;;20.30;69.20;;;;;;5105158;28;20035;-72
2022/06/04 11:03:16;;;;;;;0.00;0.00;;;20.10;68.90;;;;;;5107987;28;20039;-74
2022/06/04 11:06:11;;;;;;;0.00;0.00;;;19.70;68.90;;;;;;5085900;28;20477;-73
2022/06/04 11:09:02;;;;;;;0.00;0.00;;;19.50;68.80;;;;;;5103872;28;20036;-74
2022/06/04 11:11:52;;;;;;;0.00;0.00;;;19.10;68.70;;;;;;5105424;28;20020;-73
2022/06/04 11:14:29;;;;;;;0.00;0.00;;;18.70;68.90;;;;;;5106873;28;20027;-73
2022/06/04 11:17:01;;;;;;;0.00;0.00;;;18.40;69.10;;;;;;5089529;28;20027;-75
2022/06/04 11:19:59;;;;;;;0.00;0.00;;;18.10;69.30;;;;;;5107937;28;20586;-73
2022/06/04 11:22:40;;;;;;;0.00;0.00;;;18.00;69.30;;;;;;5101492;28;20725;-74
2022/06/04 11:25:29;;;;;;;0.00;0.00;;;17.90;69.30;;;;;;5108006;28;20038;-74
2022/06/04 11:27:59;;;;;;;0.00;0.00;;;18.00;69.50;;;;;;5107665;28;20062;-73
2022/06/04 11:30:54;;;;;;;0.00;0.00;;;18.10;69.40;;;;;;5089837;28;20026;-75
2022/06/04 11:33:42;;;;;;;0.00;0.00;;;18.40;69.40;;;;;;5108096;28;20051;-75
2022/06/04 11:36:29;;;;;;;0.00;0.00;;;19.10;70.00;;;;;;5108180;28;20152;-76
2022/06/04 11:39:30;;;;;;;0.00;0.00;;;19.90;69.80;;;;;;5107593;28;20030;-72
2022/06/04 11:42:14;;;;;;;0.00;0.00;;;20.60;69.40;;;;;;5068369;28;20071;-73
2022/06/04 11:44:57;;;;;;;0.00;0.00;;;20.80;68.60;;;;;;5107358;28;20447;-72
2022/06/04 11:47:52;;;;;;;0.15;0.08;;;20.60;68.60;;;;;;5107534;28;20024;-72
2022/06/04 11:50:24;;;;;;;0.00;0.00;;;20.60;68.70;;;;;;5102449;28;20354;-71
2022/06/04 11:53:09;;;;;;;0.00;0.00;;;20.40;68.50;;;;;;5107436;28;20026;-72
2022/06/04 11:55:48;;;;;;;0.00;0.00;;;20.20;69.00;;;;;;5088771;28;20474;-73
2022/06/04 11:58:35;;;;;;;0.17;0.00;;;20.40;69.80;;;;;;5089488;28;20467;-72
2022/06/04 12:01:08;;;;;;;0.00;0.00;;;21.10;70.60;;;;;;5089401;28;20042;-74
2022/06/04 12:04:05;;;;;;;0.00;0.00;;;21.50;69.80;;;;;;5106812;28;20062;-72
2022/06/04 12:06:48;;;;;;;0.00;0.00;;;21.60;69.00;;;;;;5102863;28;20040;-73
2022/06/04 12:09:29;;;;;;;0.00;0.00;;;21.80;69.70;;;;;;5107757;28;20042;-72
2022/06/04 12:12:04;;;;;;;0.00;0.00;;;21.80;69.60;;;;;;5107808;28;20111;-73
2022/06/04 12:14:46;;;;;;;0.00;0.00;;;22.00;69.30;;;;;;5107400;28;20023;-73
2022/06/04 12:17:24;;;;;;;0.00;0.00;;;21.90;68.80;;;;;;5107437;28;20028;-74
2022/06/04 12:26:25;;;;;;;0.00;0.00;;;20.60;68.90;;;;;;5106380;28;20034;-73
2022/06/04 12:28:51;;;;;;;0.00;0.00;;;20.10;68.80;;;;;;5107677;28;20442;-73
2022/06/04 12:31:36;;;;;;;0.00;0.00;;;19.80;68.90;;;;;;5111493;28;20061;-72
2022/06/04 12:34:23;;;;;;;0.00;0.00;;;19.60;69.10;;;;;;5111537;28;20027;-72
2022/06/04 12:36:52;;;;;;;0.00;0.00;;;19.60;69.20;;;;;;5110618;28;20036;-73
2022/06/04 12:39:27;;;;;;;0.00;0.00;;;19.40;69.00;;;;;;5110664;28;20031;-73
2022/06/04 12:42:20;;;;;;;0.00;0.00;;;19.30;69.20;;;;;;5111098;28;20024;-73
2022/06/04 12:45:32;;;;;;;0.00;0.00;;;19.40;69.80;;;;;;5110998;28;20042;-72
2022/06/04 12:47:58;;;;;;;0.00;0.00;;;19.70;69.70;;;;;;5100666;28;20036;-73
2022/06/04 12:50:30;;;;;;;0.00;0.00;;;20.20;70.80;;;;;;5110897;28;20081;-73
2022/06/04 12:53:16;;;;;;;0.00;0.00;;;20.90;70.80;;;;;;5110773;28;20046;-72
2022/06/04 12:55:50;;;;;;;0.00;0.00;;;21.30;70.20;;;;;;5111126;28;20027;-73
2022/06/04 12:58:49;;;;;;;0.00;0.00;;;21.40;69.60;;;;;;5111272;28;20024;-73
2022/06/04 13:01:18;;;;;;;0.00;0.00;;;21.20;69.30;;;;;;5055138;28;20361;-72
2022/06/04 13:03:47;;;;;;;0.00;0.00;;;20.90;69.30;;;;;;5091741;28;20054;-73
2022/06/04 13:06:13;;;;;;;0.00;0.00;;;20.80;69.40;;;;;;5109916;28;20020;-72
2022/06/04 13:08:41;;;;;;;;;;;20.80;69.60;;;;;;5110533;28;20031;-73
2022/06/04 13:11:28;;;;;;;0.00;0.00;;;20.90;69.50;;;;;;5091752;28;19904;-73
2022/06/04 13:14:34;;;;;;;0.00;0.00;;;21.00;68.90;;;;;;5110094;28;20023;-71
2022/06/04 13:17:16;;;;;;;0.00;0.00;;;20.90;68.90;;;;;;5109916;28;20077;-71
2022/06/04 13:19:51;;;;;;;0.00;0.00;;;20.70;68.90;;;;;;5109970;28;20058;-71
2022/06/04 13:22:44;;;;;;;0.00;0.00;;;20.60;68.70;;;;;;5110069;28;20028;-71
2022/06/04 13:25:17;;;;;;;0.00;0.00;;;20.30;68.80;;;;;;5109585;28;20035;-71
2022/06/04 13:27:51;;;;;;;0.00;0.00;;;20.30;69.00;;;;;;5109749;28;20095;-71
2022/06/04 13:30:35;;;;;;;0.00;0.00;;;20.20;68.80;;;;;;5109625;28;20434;-72
2022/06/04 13:33:14;;;;;;;0.00;0.00;;;20.00;68.70;;;;;;5109368;28;20019;-73
2022/06/04 13:35:52;;;;;;;0.00;0.00;;;19.80;69.00;;;;;;5107082;28;20458;-73
2022/06/04 13:38:41;;;;;;;0.00;0.00;;;19.70;68.90;;;;;;5108726;28;20036;-72
2022/06/04 13:44:16;;;;;;;0.00;0.00;;;19.30;68.90;;;;;;5108001;28;20068;-68